Airfield :
LOGIN :

Register | Disclaimer

   EN    FR    IT 

 










Legend :    VFR   Marginal VFR   IFR   Intensive IFR   Very Intensive IFR
Visi :
Ceiling :
>= 8 km
>= 3000ft
5 to 8 km
1000 to 3000 ft
1500m to 5 km
500 to 1000 ft
800 to 1500m
200 to 500 ft
< 800m
< 200 ft
Symbols :   Thunderstorms  Fog  Heavy snow  Heavy precipitations  Wind > 20 kt
SIGMETs :     Misc.  Thunderstorms  Icing  Turbulence  Mountain Waves  Volcanic Ashes







- Airport Elevation : -15 ft
- IATA code : RTM


EHRD - Rotterdam Zestienhoven

CURRENT METAR :
  • 221625Z AUTO 29008KT 4400 HZ NSC 11/08 Q1026 BECMG 2000 BR BKN003

EXPIRED METARs :
  • 221555Z AUTO 28009KT 6000 NSC 14/10 Q1026 BECMG 2000 BR
  • 221525Z AUTO 23006KT 180V280 9999 NCD 16/06 Q1026 BECMG 4000 BR
  • 221455Z AUTO 17006KT 140V210 9999 NCD 16/07 Q1026 BECMG 4000 BR
  • 221425Z AUTO 18005KT 140V230 9999 NCD 16/07 Q1027 NOSIG
  • 221355Z AUTO 18004KT 130V230 9999 NCD 16/06 Q1027 NOSIG

TAF AMD TAF EHRD
Valid from the 22 at 15:00 until the 23 at 18:00 UTC


221525Z 2215/2318 23007KT 8000 NSC
BECMG 2215/2218 28005KT 1200 BR BKN002
PROB40 2217/2303 0500 FG BKN001
BECMG 2302/2305 6000 NSW BKN030
PROB40
TEMPO 2309/2313 2500 -DZ BKN006
BECMG 2312/2315 01010KT 9999 FEW025
No reported NOTAMs for that airfield.



MET'MAP, your aeronautical weather chart ! - Copyright ORBIFLY December 2007 - Disclaimer

ORBIFLY MET'MAP TEAM :

Programming & Development : Alexandra Zaïnal
Concept & Development : Baudouin d'Aumeries
Co-Development & Prog : Marc-Olivier Méhu
Technical & hardware support : Manuel Goepfert

Contact : metmap@orbifly.com




SOURCES & CREDITS :

   NOAA